Terminal Aerodrome Forecast
Issued by NWS Los Angeles, CA

Home | Current Version | Previous Version | Text Only | Print | Product List | Glossary On
Versions: 1 2 3 4 5 6 7 8 9 10 11 12 13 14 15 16 17 18 19 20 21 22 23 24
000
FTUS46 KLOX 252352
TAFSMX
TAF
KSMX 252352Z 2600/2624 30012KT P6SM FEW020
     FM260200 30008KT P6SM SCT015
     FM260400 30006KT P6SM BKN012
     FM260900 00000KT 6SM BR OVC007
     FM261500 VRB03KT P6SM BKN012
     FM261630 30007KT P6SM SCT012 SCT250
     FM262000 30012KT P6SM SCT250=

USA.gov is the U.S. government's official web portal to all federal, state and local government web resources and services.